Time;durP1;ratioP1;P1;durP2;ratioP2;P2;SDS_P1;SDS_P2;PMS_P1;PMS_P2;Temp;Humidity;BMP_temperature;BMP_pressure;BME280_temperature;BME280_humidity;BME280_pressure;Samples;Min_cycle;Max_cycle;Signal;HPM_P1;HPM_P2
2022/03/20 00:00:09;;;;;;;44.10;23.13;;;7.00;77.60;;;;;;5032079;28;20486;-49
2022/03/20 00:02:36;;;;;;;40.27;23.03;;;7.10;77.50;;;;;;5063573;28;20493;-49
2022/03/20 00:05:04;;;;;;;41.00;24.63;;;7.00;77.70;;;;;;5060277;28;20853;-48
2022/03/20 00:07:33;;;;;;;47.43;23.70;;;;;;;;;;5057423;28;20493;-48
2022/03/20 00:10:00;;;;;;;39.40;23.13;;;7.00;78.00;;;;;;5059736;28;21620;-49
2022/03/20 00:12:27;;;;;;;38.97;21.90;;;7.00;77.80;;;;;;5060160;28;20491;-48
2022/03/20 00:14:54;;;;;;;46.90;24.70;;;7.00;78.00;;;;;;5061734;28;20490;-49
2022/03/20 00:17:21;;;;;;;42.53;25.03;;;7.00;78.40;;;;;;5058803;28;20481;-49
2022/03/20 00:19:48;;;;;;;36.17;22.60;;;6.90;78.00;;;;;;5060475;28;20477;-49
2022/03/20 00:22:17;;;;;;;39.90;23.93;;;7.00;77.90;;;;;;5059943;28;20488;-49
2022/03/20 00:24:44;;;;;;;44.77;24.83;;;7.00;77.80;;;;;;5060275;28;20482;-49
2022/03/20 00:27:13;;;;;;;39.07;23.03;;;7.00;77.80;;;;;;5059380;28;20612;-49
2022/03/20 00:29:40;;;;;;;41.43;23.10;;;7.00;78.00;;;;;;5060521;28;20888;-49
2022/03/20 00:32:09;;;;;;;36.83;22.37;;;6.90;78.00;;;;;;5062697;28;20486;-49
2022/03/20 00:34:37;;;;;;;44.33;23.50;;;6.90;78.10;;;;;;5060585;28;20917;-49
2022/03/20 00:37:05;;;;;;;39.53;21.97;;;6.80;78.10;;;;;;5058619;28;20481;-49
2022/03/20 00:39:34;;;;;;;41.03;24.07;;;6.90;78.30;;;;;;5058804;28;20482;-49
2022/03/20 00:42:01;;;;;;;39.87;24.20;;;6.90;78.30;;;;;;5060745;28;20492;-49
2022/03/20 00:44:29;;;;;;;48.10;23.10;;;;;;;;;;5060208;28;20512;-48
2022/03/20 00:46:55;;;;;;;45.80;26.07;;;6.90;77.80;;;;;;5059001;28;21173;-49
2022/03/20 00:49:22;;;;;;;35.83;21.70;;;6.90;77.50;;;;;;5058235;28;20477;-49
2022/03/20 00:51:49;;;;;;;40.80;22.53;;;6.90;77.50;;;;;;5061036;28;20490;-49
2022/03/20 00:54:16;;;;;;;49.20;26.27;;;;;;;;;;5060526;28;20488;-50
2022/03/20 00:56:44;;;;;;;42.90;26.47;;;7.00;77.40;;;;;;5057083;28;20974;-49
2022/03/20 00:59:11;;;;;;;45.20;23.90;;;6.90;77.00;;;;;;5058761;28;20494;-53
2022/03/20 01:01:38;;;;;;;39.63;21.63;;;6.90;76.30;;;;;;5059923;28;21254;-49
2022/03/20 01:04:05;;;;;;;38.13;23.00;;;6.90;76.90;;;;;;5061502;28;20478;-49
2022/03/20 01:06:32;;;;;;;44.63;24.47;;;6.90;77.80;;;;;;5060144;28;20482;-49
2022/03/20 01:08:59;;;;;;;36.23;22.27;;;6.90;78.10;;;;;;5057218;28;20897;-49
2022/03/20 01:11:26;;;;;;;40.17;24.70;;;6.90;78.30;;;;;;5059362;28;20564;-49
2022/03/20 01:13:56;;;;;;;38.20;20.40;;;6.90;77.20;;;;;;5060807;28;20480;-49
2022/03/20 01:16:22;;;;;;;41.03;22.27;;;6.90;77.40;;;;;;5059841;28;20510;-49
2022/03/20 01:18:49;;;;;;;43.30;24.90;;;;;;;;;;5055196;28;20474;-50
2022/03/20 01:21:16;;;;;;;42.00;21.57;;;6.90;76.10;;;;;;5059880;28;20990;-50
2022/03/20 01:23:43;;;;;;;31.63;20.27;;;6.90;73.60;;;;;;5059871;28;20477;-49
2022/03/20 01:26:11;;;;;;;33.73;19.23;;;6.90;73.20;;;;;;5063603;28;20623;-49
2022/03/20 01:28:38;;;;;;;34.13;18.57;;;6.90;73.00;;;;;;5061628;28;20473;-49
2022/03/20 01:31:08;;;;;;;34.50;20.07;;;6.90;72.40;;;;;;5059120;28;20490;-49
2022/03/20 01:33:35;;;;;;;38.50;18.60;;;6.90;71.50;;;;;;5058550;28;20478;-49
2022/03/20 01:36:02;;;;;;;41.30;21.00;;;7.00;71.50;;;;;;5058328;28;20482;-49
2022/03/20 01:38:29;;;;;;;31.00;15.67;;;6.90;70.60;;;;;;5054731;28;20494;-49
2022/03/20 01:40:55;;;;;;;27.60;18.90;;;7.00;70.60;;;;;;5059136;28;20489;-49
2022/03/20 01:43:22;;;;;;;39.83;19.77;;;7.00;70.30;;;;;;5050291;28;20850;-49
2022/03/20 01:45:49;;;;;;;37.80;21.53;;;6.90;70.00;;;;;;5060573;28;20489;-49
2022/03/20 01:48:17;;;;;;;31.70;17.10;;;6.90;70.10;;;;;;5052213;28;21042;-49
2022/03/20 01:50:44;;;;;;;39.40;18.40;;;6.90;70.10;;;;;;5064588;28;20472;-50
2022/03/20 01:53:11;;;;;;;35.23;21.03;;;6.90;70.00;;;;;;5067246;28;20485;-49
2022/03/20 01:55:38;;;;;;;35.57;20.57;;;6.90;70.20;;;;;;5066878;28;20556;-49
2022/03/20 01:58:05;;;;;;;36.67;18.77;;;6.90;69.60;;;;;;5061513;28;20489;-49
2022/03/20 02:00:32;;;;;;;35.73;20.40;;;6.90;69.70;;;;;;5066073;28;20478;-49
2022/03/20 02:02:59;;;;;;;38.97;19.30;;;6.90;70.00;;;;;;5067476;28;20563;-49
2022/03/20 02:05:28;;;;;;;44.90;20.93;;;;;;;;;;5066656;28;20815;-49
2022/03/20 02:07:55;;;;;;;32.87;18.43;;;6.90;69.60;;;;;;5050996;28;20808;-49
2022/03/20 02:10:22;;;;;;;37.40;20.13;;;;;;;;;;5064975;28;20492;-49
2022/03/20 02:12:49;;;;;;;33.43;20.13;;;6.90;69.70;;;;;;5065843;28;20487;-49
2022/03/20 02:15:16;;;;;;;28.13;18.40;;;6.80;69.30;;;;;;5067179;28;20492;-49
2022/03/20 02:17:45;;;;;;;40.67;21.97;;;6.80;69.20;;;;;;5062479;28;20898;-49
2022/03/20 02:20:12;;;;;;;37.73;21.60;;;6.80;69.50;;;;;;5040014;28;20602;-49
2022/03/20 02:22:42;;;;;;;33.70;18.87;;;6.80;69.60;;;;;;5067960;28;20486;-49
2022/03/20 02:25:11;;;;;;;31.50;19.30;;;6.80;69.40;;;;;;5065766;28;20576;-49
2022/03/20 02:27:39;;;;;;;29.80;18.27;;;6.80;69.60;;;;;;5060770;28;20623;-49
2022/03/20 02:30:12;;;;;;;36.40;20.27;;;6.70;69.50;;;;;;5064467;28;20566;-49
2022/03/20 02:32:41;;;;;;;43.70;21.37;;;6.70;69.40;;;;;;5064556;28;20905;-49
2022/03/20 02:35:14;;;;;;;30.33;18.50;;;6.70;69.20;;;;;;5065991;28;20514;-49
2022/03/20 02:37:44;;;;;;;32.10;19.60;;;6.70;69.00;;;;;;5059915;28;20479;-49
2022/03/20 02:40:12;;;;;;;28.70;17.00;;;6.70;68.90;;;;;;5066419;28;20480;-49
2022/03/20 02:42:41;;;;;;;37.33;18.90;;;6.70;69.00;;;;;;5067376;28;20579;-50
2022/03/20 02:45:11;;;;;;;35.70;18.33;;;6.80;69.00;;;;;;5065710;28;20474;-50
2022/03/20 02:47:39;;;;;;;32.77;20.03;;;6.80;69.00;;;;;;5061365;28;20475;-50
2022/03/20 02:50:07;;;;;;;32.17;18.13;;;;;;;;;;5064214;28;20597;-49
2022/03/20 02:52:46;;;;;;;37.97;20.50;;;6.90;69.40;;;;;;5055406;28;20473;-49
2022/03/20 02:55:14;;;;;;;31.57;17.80;;;6.80;68.50;;;;;;5067245;28;20671;-49
2022/03/20 02:57:40;;;;;;;44.93;20.30;;;6.80;68.50;;;;;;5060609;28;20473;-49
2022/03/20 03:00:09;;;;;;;34.77;20.27;;;6.90;69.50;;;;;;5063902;28;20480;-49
2022/03/20 03:02:37;;;;;;;33.33;21.20;;;6.90;69.10;;;;;;5064513;28;20829;-49
2022/03/20 03:05:05;;;;;;;49.53;20.57;;;6.90;69.10;;;;;;5065875;28;20496;-49
2022/03/20 03:10:55;;;;;;;32.47;20.20;;;6.90;69.10;;;;;;5059568;28;20485;-49
2022/03/20 03:13:08;;;;;;;37.80;21.80;;;6.90;69.10;;;;;;5066853;28;20627;-49
2022/03/20 03:15:35;;;;;;;38.93;20.90;;;6.90;68.70;;;;;;5067329;28;20484;-49
2022/03/20 03:18:02;;;;;;;34.10;20.00;;;7.00;69.00;;;;;;5060189;28;20849;-49
2022/03/20 03:20:29;;;;;;;32.00;19.47;;;7.00;68.70;;;;;;5064825;28;20744;-50
2022/03/20 03:22:55;;;;;;;51.57;21.30;;;7.00;68.60;;;;;;5066483;28;20476;-49
2022/03/20 03:25:24;;;;;;;35.20;20.23;;;7.00;68.50;;;;;;5066643;28;20482;-49
2022/03/20 03:27:51;;;;;;;29.13;18.17;;;7.10;68.90;;;;;;5048142;28;20555;-50
2022/03/20 03:30:18;;;;;;;36.73;20.63;;;7.10;68.50;;;;;;5064620;28;20485;-49
2022/03/20 03:32:45;;;;;;;35.27;18.80;;;7.10;68.70;;;;;;5065526;28;20484;-49
2022/03/20 03:37:58;;;;;;;31.30;19.37;;;7.10;68.10;;;;;;5059470;28;20523;-49
2022/03/20 03:40:27;;;;;;;34.13;19.53;;;7.10;68.30;;;;;;5060600;28;20980;-49
2022/03/20 03:42:54;;;;;;;32.50;19.13;;;7.10;67.90;;;;;;5063125;28;21035;-49
2022/03/20 03:45:22;;;;;;;33.13;18.50;;;7.10;67.60;;;;;;5063516;28;20488;-49
2022/03/20 03:47:50;;;;;;;39.90;21.03;;;7.10;68.60;;;;;;5060402;28;20483;-50
2022/03/20 03:50:17;;;;;;;54.43;21.63;;;7.20;68.50;;;;;;5065824;28;20472;-49
2022/03/20 03:52:44;;;;;;;37.03;20.50;;;7.30;68.60;;;;;;5065186;28;20478;-49
2022/03/20 03:55:11;;;;;;;35.53;22.27;;;7.30;68.30;;;;;;5065634;28;20487;-49
2022/03/20 03:57:43;;;;;;;44.73;20.57;;;7.30;68.40;;;;;;5057011;28;21026;-50
2022/03/20 04:00:10;;;;;;;33.83;20.90;;;7.30;68.00;;;;;;5041503;28;20477;-50
2022/03/20 04:02:37;;;;;;;37.47;21.43;;;7.40;68.10;;;;;;5060101;28;20479;-50
2022/03/20 04:05:04;;;;;;;44.67;21.57;;;7.40;67.80;;;;;;5066262;28;20757;-50
2022/03/20 04:07:31;;;;;;;29.30;19.80;;;7.40;67.50;;;;;;5056974;28;21073;-50
2022/03/20 04:09:58;;;;;;;31.27;20.53;;;7.50;68.20;;;;;;5065147;28;20480;-49
2022/03/20 04:12:25;;;;;;;32.70;18.90;;;7.50;68.20;;;;;;5061069;28;20485;-50
2022/03/20 04:14:53;;;;;;;38.73;21.80;;;7.60;68.20;;;;;;5023974;28;20475;-50
2022/03/20 04:17:20;;;;;;;37.50;21.07;;;7.60;68.20;;;;;;5005947;28;20825;-50
2022/03/20 04:19:46;;;;;;;37.37;19.87;;;7.60;68.50;;;;;;5059434;28;20810;-50
2022/03/20 04:22:13;;;;;;;31.33;21.00;;;7.60;68.40;;;;;;5042702;28;20483;-50
2022/03/20 04:24:40;;;;;;;33.40;20.80;;;7.60;68.10;;;;;;4988136;28;20497;-49
2022/03/20 04:27:08;;;;;;;41.60;21.30;;;7.60;68.90;;;;;;4997228;28;20867;-49
2022/03/20 04:29:35;;;;;;;31.97;20.40;;;7.60;68.30;;;;;;5061880;28;20474;-49
2022/03/20 04:32:04;;;;;;;40.90;20.97;;;7.60;68.40;;;;;;5061622;28;20528;-49
2022/03/20 04:34:31;;;;;;;39.87;21.00;;;7.60;68.40;;;;;;5063468;28;20488;-50
2022/03/20 04:36:57;;;;;;;32.77;20.60;;;7.60;68.40;;;;;;5058940;28;20704;-50
2022/03/20 04:39:27;;;;;;;36.27;21.60;;;7.60;67.80;;;;;;5061593;28;20468;-49
2022/03/20 04:41:54;;;;;;;35.87;20.10;;;7.60;68.70;;;;;;5051789;28;21060;-49
2022/03/20 04:44:22;;;;;;;37.73;22.00;;;7.60;68.70;;;;;;5059388;28;20825;-53
2022/03/20 04:46:49;;;;;;;34.23;21.70;;;;;;;;;;5054952;28;20474;-49
2022/03/20 05:00:15;;;;;;;32.20;20.37;;;7.40;69.00;;;;;;5058749;28;20837;-50
2022/03/20 05:02:42;;;;;;;39.13;21.10;;;7.40;68.80;;;;;;5044978;28;20953;-50
2022/03/20 05:05:11;;;;;;;37.10;22.33;;;7.40;68.80;;;;;;5042238;28;20478;-50
2022/03/20 05:07:37;;;;;;;35.70;19.87;;;7.40;68.90;;;;;;5055285;28;20486;-50
2022/03/20 05:15:36;;;;;;;37.43;19.70;;;7.40;68.80;;;;;;5060201;28;20527;-50
2022/03/20 05:18:03;;;;;;;34.87;21.17;;;7.40;69.90;;;;;;5057047;28;20490;-50
2022/03/20 05:20:31;;;;;;;38.87;22.13;;;7.30;69.30;;;;;;5058316;28;21020;-50
2022/03/20 05:22:58;;;;;;;35.70;22.13;;;7.30;69.10;;;;;;5059166;28;20488;-50
2022/03/20 05:25:27;;;;;;;33.00;21.50;;;7.40;69.60;;;;;;5062380;28;20501;-49
2022/03/20 05:27:54;;;;;;;35.37;21.33;;;7.40;70.00;;;;;;5059902;28;20597;-50
2022/03/20 05:30:22;;;;;;;37.23;23.30;;;7.50;70.30;;;;;;5062639;28;21351;-50
2022/03/20 05:32:50;;;;;;;40.60;21.70;;;7.50;70.00;;;;;;5063474;28;20483;-50
2022/03/20 05:35:18;;;;;;;56.13;22.07;;;;;;;;;;5064294;28;21237;-50
2022/03/20 05:37:46;;;;;;;42.40;21.30;;;7.50;69.80;;;;;;5059508;28;20483;-51
2022/03/20 05:40:15;;;;;;;37.00;19.97;;;7.50;69.80;;;;;;5060963;28;20486;-50
2022/03/20 05:42:42;;;;;;;36.60;20.60;;;7.50;69.70;;;;;;5058700;28;20482;-50
2022/03/20 05:45:11;;;;;;;41.53;21.63;;;7.50;70.20;;;;;;5064507;28;20538;-50
2022/03/20 05:47:38;;;;;;;36.87;21.27;;;7.50;70.50;;;;;;5022819;28;20473;-49
2022/03/20 05:50:06;;;;;;;45.13;22.60;;;7.50;70.00;;;;;;5063140;28;21194;-50
2022/03/20 05:52:35;;;;;;;38.17;22.50;;;7.50;69.90;;;;;;5064844;28;20479;-51
2022/03/20 05:55:04;;;;;;;34.40;21.50;;;7.50;70.10;;;;;;5061275;28;20493;-50
2022/03/20 06:00:26;;;;;;;60.07;22.53;;;7.50;70.40;;;;;;5061751;28;20530;-51
2022/03/20 06:02:52;;;;;;;33.97;20.80;;;7.50;70.00;;;;;;5063353;28;20481;-51
2022/03/20 06:05:20;;;;;;;32.60;21.37;;;7.60;70.30;;;;;;5061915;28;20493;-51
2022/03/20 06:07:49;;;;;;;47.53;23.90;;;7.60;70.20;;;;;;5059769;28;20482;-52
2022/03/20 06:10:18;;;;;;;34.03;22.73;;;7.60;69.70;;;;;;5062285;28;20485;-49
2022/03/20 06:12:46;;;;;;;34.03;21.80;;;7.50;71.60;;;;;;5062247;28;20483;-49
2022/03/20 06:15:13;;;;;;;43.67;22.00;;;7.50;72.10;;;;;;5062856;28;20499;-49
2022/03/20 06:17:41;;;;;;;45.60;23.53;;;;;;;;;;5059324;28;20521;-49
2022/03/20 06:20:10;;;;;;;38.10;21.83;;;7.40;71.20;;;;;;5062758;28;20967;-48
2022/03/20 06:22:37;;;;;;;46.10;24.17;;;7.40;71.60;;;;;;5062721;28;20473;-48
2022/03/20 06:25:08;;;;;;;37.53;24.07;;;7.40;71.20;;;;;;5061209;28;20482;-49
2022/03/20 06:27:48;;;;;;;44.57;24.77;;;7.40;71.20;;;;;;5055253;28;21003;-48
2022/03/20 06:30:16;;;;;;;39.30;24.73;;;7.50;71.40;;;;;;5051362;28;20481;-48
2022/03/20 06:32:44;;;;;;;41.50;24.03;;;7.60;72.00;;;;;;5062055;28;20477;-49
2022/03/20 06:35:12;;;;;;;43.63;23.30;;;;;;;;;;5060392;28;21381;-48
2022/03/20 06:37:41;;;;;;;39.07;23.07;;;7.70;71.20;;;;;;5058061;28;20519;-49
2022/03/20 06:40:08;;;;;;;40.30;22.60;;;7.80;71.80;;;;;;5034103;28;20467;-49
2022/03/20 06:42:36;;;;;;;38.53;21.40;;;;;;;;;;5058172;28;20990;-49
2022/03/20 06:45:08;;;;;;;45.43;23.37;;;7.90;71.60;;;;;;5062987;28;21803;-49
2022/03/20 06:47:35;;;;;;;40.13;23.40;;;7.90;70.90;;;;;;5059725;28;20477;-49
2022/03/20 06:50:02;;;;;;;38.40;22.03;;;8.10;71.60;;;;;;5066011;28;20459;-49
2022/03/20 06:52:29;;;;;;;36.50;21.70;;;8.20;71.50;;;;;;5062597;28;20489;-49
2022/03/20 06:54:58;;;;;;;38.30;23.70;;;8.30;72.80;;;;;;5067832;28;20501;-49
2022/03/20 06:57:25;;;;;;;35.17;23.90;;;8.40;69.90;;;;;;5057658;28;20490;-50
2022/03/20 06:59:53;;;;;;;38.07;24.37;;;8.50;70.70;;;;;;5060654;28;20482;-49
2022/03/20 07:02:21;;;;;;;46.30;24.90;;;;;;;;;;5061787;28;21058;-50
2022/03/20 07:04:51;;;;;;;47.60;26.40;;;8.50;68.50;;;;;;5058796;28;20558;-50
2022/03/20 07:07:18;;;;;;;43.23;26.40;;;8.50;70.50;;;;;;5058446;28;20479;-50
2022/03/20 07:09:45;;;;;;;45.13;27.90;;;8.40;70.40;;;;;;5061541;28;20479;-51
2022/03/20 07:12:13;;;;;;;42.70;25.30;;;8.40;70.50;;;;;;5062610;28;20478;-49
2022/03/20 07:14:41;;;;;;;44.03;22.20;;;8.50;72.00;;;;;;5033730;28;20474;-50
2022/03/20 07:17:11;;;;;;;48.13;26.20;;;8.30;70.70;;;;;;5060195;28;20552;-50
2022/03/20 07:19:42;;;;;;;48.73;25.17;;;8.30;70.20;;;;;;5059892;28;20935;-49
2022/03/20 07:22:09;;;;;;;43.13;24.80;;;8.30;71.00;;;;;;5051912;28;20476;-49
2022/03/20 07:24:37;;;;;;;45.40;24.57;;;8.30;70.50;;;;;;5057432;28;20486;-49
2022/03/20 07:29:50;;;;;;;44.97;23.80;;;8.30;71.20;;;;;;5057336;28;20506;-50
2022/03/20 07:32:17;;;;;;;32.93;19.10;;;8.30;71.30;;;;;;5061581;28;20498;-50
2022/03/20 07:34:45;;;;;;;40.17;24.63;;;8.30;71.10;;;;;;5060084;28;20484;-50
2022/03/20 07:37:15;;;;;;;47.07;24.80;;;;;;;;;;5058002;28;21215;-49
2022/03/20 07:39:43;;;;;;;41.10;24.13;;;8.40;71.80;;;;;;5061179;28;20471;-49
2022/03/20 07:42:10;;;;;;;39.63;24.50;;;;;;;;;;5061299;28;20479;-49
2022/03/20 07:44:37;;;;;;;37.17;24.40;;;;;;;;;;5060931;28;20468;-49
2022/03/20 07:47:08;;;;;;;37.07;22.90;;;8.70;71.80;;;;;;5052737;28;20494;-50
2022/03/20 07:49:37;;;;;;;43.57;24.33;;;;;;;;;;5059546;28;20565;-49
2022/03/20 07:52:06;;;;;;;44.43;23.73;;;9.00;71.40;;;;;;5060152;28;20516;-49
2022/03/20 07:54:33;;;;;;;34.40;20.03;;;8.90;71.50;;;;;;5060651;28;20486;-49
2022/03/20 07:57:00;;;;;;;60.67;22.27;;;9.00;72.60;;;;;;5057331;28;20595;-49
2022/03/20 07:59:26;;;;;;;43.67;26.43;;;8.90;70.90;;;;;;5061989;28;21151;-50
2022/03/20 08:01:53;;;;;;;50.80;24.33;;;9.00;71.70;;;;;;5062418;28;20514;-51
2022/03/20 08:04:21;;;;;;;40.20;25.20;;;9.00;72.20;;;;;;5059245;28;20466;-50
2022/03/20 08:06:48;;;;;;;37.80;23.63;;;8.90;72.60;;;;;;5058950;28;20475;-50
2022/03/20 08:09:16;;;;;;;43.40;24.27;;;8.90;72.50;;;;;;5059720;28;20480;-51
2022/03/20 08:11:43;;;;;;;45.60;25.70;;;8.90;73.30;;;;;;5059259;28;20476;-50
2022/03/20 08:14:10;;;;;;;24.63;13.73;;;;;;;;;;5057023;28;20477;-50
2022/03/20 08:16:38;;;;;;;25.37;10.20;;;9.10;71.90;;;;;;5048738;28;20562;-50
2022/03/20 08:19:05;;;;;;;46.33;23.53;;;9.10;72.70;;;;;;5058629;28;20476;-51
2022/03/20 08:21:34;;;;;;;43.80;26.93;;;9.20;72.50;;;;;;5057891;28;20561;-51
2022/03/20 08:24:02;;;;;;;41.17;28.93;;;9.10;73.00;;;;;;5061361;28;20484;-50
2022/03/20 08:26:32;;;;;;;41.20;21.73;;;9.10;73.50;;;;;;5049821;28;20508;-50
2022/03/20 08:29:00;;;;;;;39.03;22.00;;;9.10;74.00;;;;;;5059576;28;20555;-49
2022/03/20 08:31:27;;;;;;;42.57;24.17;;;9.10;74.10;;;;;;5055085;28;21041;-50
2022/03/20 08:33:53;;;;;;;46.70;29.27;;;9.00;75.00;;;;;;5060695;28;20484;-49
2022/03/20 08:36:21;;;;;;;37.77;27.33;;;9.00;76.20;;;;;;5060619;28;20474;-50
2022/03/20 08:38:48;;;;;;;42.77;26.70;;;9.00;75.70;;;;;;5057316;28;20487;-50
2022/03/20 08:41:15;;;;;;;44.00;26.63;;;8.80;75.70;;;;;;5065848;28;20487;-50
2022/03/20 08:43:43;;;;;;;42.80;28.00;;;8.80;76.50;;;;;;5059989;28;20479;-50
2022/03/20 08:46:09;;;;;;;39.40;28.67;;;8.90;77.10;;;;;;5060708;28;20958;-50
2022/03/20 08:48:36;;;;;;;50.50;26.23;;;8.90;78.20;;;;;;5054020;28;20485;-50
2022/03/20 08:51:03;;;;;;;44.20;27.50;;;8.90;78.60;;;;;;5059364;28;20487;-50
2022/03/20 08:53:30;;;;;;;39.30;26.70;;;;;;;;;;5057848;28;20640;-50
2022/03/20 08:55:57;;;;;;;45.90;28.73;;;9.10;78.70;;;;;;5064389;28;21060;-50
2022/03/20 08:58:24;;;;;;;37.73;24.93;;;9.20;79.30;;;;;;5056043;28;20492;-50
2022/03/20 09:00:52;;;;;;;41.40;24.20;;;9.30;79.90;;;;;;5059071;28;20475;-50
2022/03/20 09:03:19;;;;;;;50.73;27.50;;;9.50;80.70;;;;;;5059474;28;21166;-51
2022/03/20 09:05:45;;;;;;;47.27;29.20;;;9.40;79.60;;;;;;5060335;28;20510;-50
2022/03/20 09:08:12;;;;;;;53.90;36.87;;;9.50;79.50;;;;;;5057350;28;20475;-50
2022/03/20 09:10:39;;;;;;;47.23;26.17;;;9.60;79.90;;;;;;5058939;28;20475;-50
2022/03/20 09:13:06;;;;;;;40.90;26.43;;;9.70;80.10;;;;;;5059934;28;20850;-50
2022/03/20 09:15:33;;;;;;;45.80;30.10;;;9.60;79.90;;;;;;5058319;28;20472;-50
2022/03/20 09:20:46;;;;;;;50.83;26.10;;;9.50;80.70;;;;;;5033613;28;20477;-49
2022/03/20 09:23:15;;;;;;;47.97;28.07;;;9.40;81.90;;;;;;5033006;28;21059;-50
2022/03/20 09:25:42;;;;;;;47.13;30.43;;;9.40;82.10;;;;;;5059128;28;21327;-49
2022/03/20 09:28:10;;;;;;;40.03;30.00;;;9.50;82.40;;;;;;5057328;28;20484;-49
2022/03/20 09:30:39;;;;;;;45.03;24.87;;;9.70;83.50;;;;;;5058828;28;20476;-50
2022/03/20 09:33:08;;;;;;;37.17;26.50;;;9.80;83.90;;;;;;5059978;28;21273;-51
2022/03/20 09:35:36;;;;;;;26.03;14.40;;;10.00;82.90;;;;;;5058399;28;21052;-51
2022/03/20 09:38:05;;;;;;;40.40;29.00;;;10.00;83.90;;;;;;5055228;28;20495;-49
2022/03/20 09:40:35;;;;;;;32.30;24.73;;;10.10;84.20;;;;;;5055901;28;20477;-50
2022/03/20 09:43:02;;;;;;;41.23;27.77;;;9.90;85.70;;;;;;5060122;28;20543;-50
2022/03/20 09:45:30;;;;;;;38.93;25.80;;;9.90;86.20;;;;;;5057423;28;20564;-52
2022/03/20 09:47:58;;;;;;;37.17;29.13;;;9.80;87.00;;;;;;5056456;28;20476;-49
2022/03/20 09:50:26;;;;;;;33.10;20.13;;;9.90;86.80;;;;;;5058700;28;20728;-50
2022/03/20 09:52:53;;;;;;;28.77;19.50;;;9.90;87.50;;;;;;5055512;28;20499;-50
2022/03/20 09:55:19;;;;;;;34.33;21.53;;;10.00;86.00;;;;;;5057600;28;20480;-50
2022/03/20 09:57:47;;;;;;;46.70;19.60;;;;;;;;;;5055432;28;20476;-52
2022/03/20 10:00:15;;;;;;;32.00;26.83;;;9.70;88.20;;;;;;5056438;28;20479;-50
2022/03/20 10:02:41;;;;;;;37.20;25.53;;;9.80;89.60;;;;;;5059710;28;21335;-52
2022/03/20 10:05:10;;;;;;;43.80;25.87;;;9.80;89.30;;;;;;5060720;28;20954;-50
2022/03/20 10:07:43;;;;;;;47.40;21.23;;;9.80;88.90;;;;;;5055352;28;20493;-49
2022/03/20 10:10:16;;;;;;;34.60;26.63;;;9.90;89.30;;;;;;5060792;28;20984;-50
2022/03/20 10:12:46;;;;;;;35.70;24.37;;;10.00;89.10;;;;;;5060521;28;20960;-50
2022/03/20 10:15:27;;;;;;;32.57;19.13;;;;;;;;;;5062162;28;21213;-51
2022/03/20 10:18:09;;;;;;;34.17;23.77;;;10.10;89.10;;;;;;5047179;28;20572;-51
2022/03/20 10:20:37;;;;;;;35.00;20.77;;;10.20;89.50;;;;;;5061102;28;20481;-52
2022/03/20 10:23:06;;;;;;;42.73;23.23;;;10.40;90.00;;;;;;5060360;28;21014;-52
2022/03/20 10:25:33;;;;;;;36.97;24.97;;;10.50;90.00;;;;;;5061945;28;20493;-51
2022/03/20 10:28:01;;;;;;;31.77;24.00;;;10.50;90.20;;;;;;5046808;28;20586;-51
2022/03/20 10:30:28;;;;;;;37.63;23.10;;;10.80;90.30;;;;;;5058433;28;20514;-51
2022/03/20 10:32:54;;;;;;;33.00;23.93;;;11.00;90.50;;;;;;5062530;28;20476;-52
2022/03/20 10:35:21;;;;;;;29.10;14.87;;;11.40;89.60;;;;;;5066837;28;20483;-50
2022/03/20 10:37:51;;;;;;;35.23;23.40;;;11.20;88.40;;;;;;5062111;28;20489;-50
2022/03/20 10:40:21;;;;;;;30.93;18.47;;;11.40;88.90;;;;;;5063030;28;20486;-51
2022/03/20 10:43:08;;;;;;;31.60;21.77;;;;;;;;;;5034664;28;20476;-51
2022/03/20 10:45:55;;;;;;;35.53;19.23;;;11.60;87.60;;;;;;5061931;28;20486;-51
2022/03/20 10:48:33;;;;;;;37.77;22.93;;;11.80;88.40;;;;;;5045842;28;20527;-52
2022/03/20 10:51:01;;;;;;;32.40;21.60;;;11.90;88.10;;;;;;5058802;28;20530;-50
2022/03/20 10:53:28;;;;;;;35.27;18.30;;;12.30;88.00;;;;;;5061837;28;20494;-50
2022/03/20 10:56:07;;;;;;;17.63;11.20;;;12.50;87.40;;;;;;5062686;28;20481;-51
2022/03/20 10:58:38;;;;;;;31.90;21.90;;;12.40;87.50;;;;;;5056709;28;20580;-50
2022/03/20 11:01:07;;;;;;;26.10;17.23;;;12.40;86.60;;;;;;5048506;28;20587;-50
2022/03/20 11:03:35;;;;;;;26.73;20.90;;;12.50;86.80;;;;;;5061398;28;20509;-49
2022/03/20 11:06:02;;;;;;;40.23;15.33;;;12.60;85.10;;;;;;5067922;28;20494;-51
2022/03/20 11:08:29;;;;;;;22.73;11.50;;;12.90;86.60;;;;;;5057361;28;20482;-50
2022/03/20 11:10:56;;;;;;;24.07;13.23;;;13.00;85.30;;;;;;5061270;28;21186;-53
2022/03/20 11:13:24;;;;;;;39.03;21.70;;;13.10;86.60;;;;;;5061010;28;20505;-52
2022/03/20 11:15:53;;;;;;;34.83;21.27;;;13.30;86.90;;;;;;5062294;28;21174;-54
2022/03/20 11:18:23;;;;;;;26.90;12.13;;;13.50;84.00;;;;;;5059159;28;20531;-51
2022/03/20 11:20:51;;;;;;;30.77;15.87;;;;;;;;;;5034574;28;20495;-50
2022/03/20 11:23:19;;;;;;;35.27;22.53;;;13.70;85.00;;;;;;5034760;28;20482;-51
2022/03/20 11:25:48;;;;;;;32.80;20.80;;;13.50;83.10;;;;;;5064802;28;21110;-50
2022/03/20 11:28:16;;;;;;;27.80;21.83;;;13.40;83.20;;;;;;5053870;28;20500;-51
2022/03/20 11:30:45;;;;;;;32.80;21.10;;;13.60;83.20;;;;;;5058939;28;21615;-51
2022/03/20 11:33:13;;;;;;;36.13;18.63;;;13.70;83.80;;;;;;5062371;28;20479;-51
2022/03/20 11:35:40;;;;;;;37.00;21.03;;;14.00;83.00;;;;;;5059886;28;20494;-52
2022/03/20 11:38:18;;;;;;;29.40;20.00;;;14.20;83.00;;;;;;5055936;28;20560;-51
2022/03/20 11:41:07;;;;;;;31.83;20.00;;;14.00;81.10;;;;;;5058883;28;21131;-50
2022/03/20 11:43:35;;;;;;;27.13;19.50;;;14.30;82.30;;;;;;5056537;28;20812;-51
2022/03/20 11:46:27;;;;;;;30.70;20.77;;;14.50;82.00;;;;;;5064759;28;20491;-52
2022/03/20 11:49:21;;;;;;;25.27;15.80;;;14.70;79.60;;;;;;5046684;28;20825;-51
2022/03/20 11:52:07;;;;;;;27.57;18.17;;;14.70;78.90;;;;;;5051942;28;20472;-51
2022/03/20 11:54:51;;;;;;;28.27;17.87;;;14.70;79.10;;;;;;5064674;28;20478;-52
2022/03/20 11:57:37;;;;;;;27.30;19.13;;;;;;;;;;5030921;28;20485;-50
2022/03/20 12:00:11;;;;;;;28.70;21.30;;;14.60;78.50;;;;;;5060377;28;20836;-51
2022/03/20 12:02:54;;;;;;;34.97;22.60;;;14.60;78.50;;;;;;5059298;28;20704;-51
2022/03/20 12:05:36;;;;;;;33.60;20.37;;;14.70;79.10;;;;;;5031440;28;20469;-51
2022/03/20 12:08:31;;;;;;;32.63;19.70;;;15.00;79.50;;;;;;5056764;28;20970;-52
2022/03/20 12:11:06;;;;;;;22.43;18.10;;;14.90;77.50;;;;;;5060520;28;20470;-50
2022/03/20 12:13:46;;;;;;;38.97;19.40;;;15.10;76.90;;;;;;5060238;28;20493;-52
2022/03/20 12:16:13;;;;;;;25.73;13.47;;;;;;;;;;5059927;28;20496;-52
2022/03/20 12:19:11;;;;;;;26.40;20.80;;;15.20;76.50;;;;;;5054759;28;20483;-52
2022/03/20 12:21:57;;;;;;;24.23;18.60;;;15.40;77.10;;;;;;5059980;28;20491;-51
2022/03/20 12:24:49;;;;;;;25.03;19.03;;;15.70;76.10;;;;;;5058519;28;20493;-52
2022/03/20 12:27:36;;;;;;;27.27;14.90;;;;;;;;;;5057773;28;20478;-51
2022/03/20 12:30:34;;;;;;;30.70;20.37;;;15.60;75.10;;;;;;5060738;28;21126;-51
2022/03/20 12:33:02;;;;;;;28.37;18.17;;;15.60;75.40;;;;;;5058935;28;20485;-51
2022/03/20 12:35:43;;;;;;;30.07;17.90;;;15.80;75.20;;;;;;5058690;28;20565;-52
2022/03/20 12:38:34;;;;;;;28.17;18.40;;;16.00;74.90;;;;;;5056971;28;21091;-51
2022/03/20 12:41:07;;;;;;;28.40;19.13;;;15.90;73.90;;;;;;5059677;28;20522;-50
2022/03/20 12:43:34;;;;;;;31.93;20.10;;;16.00;74.80;;;;;;5059264;28;20487;-52
2022/03/20 12:46:01;;;;;;;32.37;19.53;;;16.00;74.30;;;;;;5066815;28;20480;-50
2022/03/20 12:48:31;;;;;;;27.30;16.80;;;16.10;73.60;;;;;;5055604;28;20503;-53
2022/03/20 12:51:04;;;;;;;34.43;21.87;;;16.00;75.10;;;;;;5068540;28;20482;-50
2022/03/20 12:53:38;;;;;;;31.27;22.43;;;15.90;73.00;;;;;;5064710;28;20471;-52
2022/03/20 12:56:09;;;;;;;30.37;20.20;;;;;;;;;;5058486;28;20548;-51
2022/03/20 12:58:36;;;;;;;30.60;21.53;;;15.90;73.80;;;;;;5054539;28;20489;-51
2022/03/20 13:01:08;;;;;;;23.20;10.57;;;16.20;73.90;;;;;;5061902;28;21020;-51
2022/03/20 13:03:35;;;;;;;32.87;18.40;;;16.60;74.80;;;;;;5066440;28;20475;-52
2022/03/20 13:06:04;;;;;;;30.03;21.13;;;;;;;;;;5062175;28;20490;-51
2022/03/20 13:08:34;;;;;;;31.73;20.67;;;16.70;72.20;;;;;;5053971;28;20499;-52
2022/03/20 13:11:03;;;;;;;28.43;15.50;;;16.80;74.60;;;;;;5059246;28;20837;-53
2022/03/20 13:13:33;;;;;;;31.70;21.10;;;16.60;71.10;;;;;;5057483;28;20490;-52
2022/03/20 13:16:01;;;;;;;32.27;21.50;;;16.40;69.70;;;;;;5054881;28;20491;-53
2022/03/20 13:18:30;;;;;;;25.33;14.63;;;16.60;71.80;;;;;;5059890;28;20748;-52
2022/03/20 13:20:59;;;;;;;33.27;18.27;;;16.70;73.30;;;;;;5059187;28;20482;-52
2022/03/20 13:23:27;;;;;;;31.93;23.03;;;16.90;73.60;;;;;;5055517;28;20493;-52